Tiempo atmosférico en la estación meteorológica de Benabarre, Huesca (765 m.)



Fecha
DESCASC
Temp. máxima en grados centígrados (hora)
DESCASC
Temp. mínima en grados centígrados (hora)
DESCASC
Temp. media en grados centígrados
DESCASC
Racha de viento máxima en m/sg (hora)
DESCASC
Velocidad máxima media en intervalos de 10 minutos(hora)
DESCASC
Precipitaciones diarias en mm
DESCASC
Precipitaciones de 00:00 a 06:00 en mm
DESCASC
Precipitaciones de 06:00 a 12:00 en mm
DESCASC
Precipitaciones de 12:00 a 18:00 en mm
DESCASC
Precipitaciones de 18:00 a 24:00 en mm
DESCASC
23-06-2019 31.4 (16:30) 14.7 (04:50) 23 8.89 (16:50) 4.44 (18:20) 0 0 0 0 0
22-06-2019 27.5 (19:10) 10.8 (06:40) 19.2 6.94 (15:30) 3.89 (15:30) 0 0 0 0 0
21-06-2019 23.3 (17:50) 14.3 (06:20) 18.8 6.94 (19:00) 4.17 (19:10) 0 0 0 0 0
20-06-2019 26.8 (17:40) 14.2 (00:00) 20.5 14.44 (19:10) 9.17 (19:10) 15 0.2 0 0 14.8
19-06-2019 -- (--) -- (--) -- -- (--) -- (--) -- -- -- -- 0
18-06-2019 -- (--) -- (--) -- -- (--) -- (--) -- 0 0 0 --
17-06-2019 29.1 (13:20) 12 (00:00) 20.6 7.5 (09:10) 4.72 (09:10) 0 0 0 0 0
16-06-2019 26.1 (17:00) 8.8 (00:00) 17.5 8.61 (14:40) 4.17 (13:00) 0 0 0 0 0
15-06-2019 23.8 (15:40) 11.2 (00:00) 17.5 11.11 (02:10) 5.83 (02:10) 0 0 0 0 0
14-06-2019 24.6 (18:50) 12.7 (00:00) 18.7 8.61 (15:10) 5.56 (14:00) 0 0 0 0 0
13-06-2019 23.8 (17:10) 8.9 (00:00) 16.3 10.56 (14:50) 6.39 (19:30) 0 0 0 0 0
12-06-2019 19.2 (19:30) 3.2 (00:00) 11.2 11.67 (13:00) 4.72 (12:30) 0 0 0 0 0
11-06-2019 15 (18:50) 6.7 (00:00) 10.8 7.22 (01:50) 4.72 (01:50) 4 1 2 0.2 0.8
10-06-2019 22.9 (16:30) 11.5 (00:00) 17.2 11.11 (17:40) 6.67 (17:40) 0.6 0 0.6 0 0
09-06-2019 27 (18:00) 13.9 (00:00) 20.4 7.5 (11:00) 5.56 (01:20) 0 0 0 0 0
08-06-2019 24.6 (16:00) 5.8 (00:00) 15.2 8.61 (17:30) 5 (17:30) 0 0 0 0 0
07-06-2019 20 (17:10) 10.1 (00:00) 15.1 12.78 (09:50) 7.5 (10:00) 0 0 0 0 0
06-06-2019 21.7 (16:00) 6.4 (00:00) 14.1 13.33 (16:50) 7.78 (21:00) 0 0 0 0 0
05-06-2019 18.4 (00:00) 11.1 (00:00) 14.8 11.39 (15:40) 6.39 (15:20) 0.8 0 0.8 0 0
04-06-2019 29.2 (16:20) 13.6 (00:00) 21.4 11.94 (19:20) 8.06 (19:00) 0 0 0 0 0
03-06-2019 28.1 (16:00) 14.7 (00:00) 21.4 9.72 (19:50) 6.67 (05:10) 0 0 0 0 0
02-06-2019 29.3 (17:00) 11.1 (00:00) 20.2 7.78 (13:50) 4.17 (17:40) 0 0 0 0 0
01-06-2019 27.6 (16:20) 11.2 (00:00) 19.4 7.5 (14:30) 3.89 (14:10) 0 0 0 0 0
31-05-2019 25.8 (17:10) 9.1 (00:00) 17.4 7.22 (17:50) 4.17 (15:50) 0 0 0 0 0
30-05-2019 24.7 (18:20) 6.5 (00:00) 15.6 7.22 (01:00) 5.28 (01:00) 0 0 0 0 0
29-05-2019 22.9 (17:50) 5 (00:00) 13.9 10.56 (21:40) 7.5 (21:30) 0 0 0 0 0
28-05-2019 21.9 (16:50) 8.8 (00:00) 15.3 11.11 (19:20) 7.5 (20:10) 0 0 0 0 0
27-05-2019 22.6 (17:00) 6.6 (00:00) 14.6 8.89 (18:20) 5.28 (18:40) 0 0 0 0 0
26-05-2019 21.3 (17:40) 6.8 (00:00) 14 7.78 (14:50) 5 (19:20) 0 0 0 0 0
25-05-2019 20.2 (13:30) 10.6 (00:00) 15.4 9.72 (16:10) 6.11 (16:20) 2.2 0 0 1.8 0.4

Gráficas

Temp. máximas Temp. mínimas Temp. medias Precipitaciones Rachas de viento máximas Velocidades máximas media en intervalos de 10 minutos

Datos horarios

Fecha y hora oficial Temperatura (ºC) Velocidad del viento (km/h) Dirección del viento Racha (km/h) Dirección de racha Precipitación (mm) Presión (hPa) Tendencia (hPa) Humedad (%)
2019-06-23 23:00:00 23.3 15 Sudeste 25 Sudeste 0 -- -- 44
2019-06-23 22:00:00 24.6 10 Sudeste 19 Sudeste 0 -- -- 43
2019-06-23 21:00:00 26.9 11 Sudeste 24 Sudeste 0 -- -- 38
2019-06-23 20:00:00 29.6 12 Sudeste 20 Sudeste 0 -- -- 33
2019-06-23 19:00:00 30.2 10 Sur 26 Este 0 -- -- 31
2019-06-23 18:00:00 31.2 14 Sudeste 23 Este 0 -- -- 32
2019-06-23 17:00:00 31.1 12 Sur 32 Sudeste 0 -- -- 31
2019-06-23 16:00:00 31.1 10 Sur 25 Sudoeste 0 -- -- 31
2019-06-23 15:00:00 30.2 14 Este 24 Sudeste 0 -- -- 36
2019-06-23 14:00:00 30.3 9 Este 17 Sudeste 0 -- -- 39
2019-06-23 13:00:00 29.1 7 Este 14 Sudeste 0 -- -- 41
2019-06-23 12:00:00 27.2 7 Este 18 Sudeste 0 -- -- 44
2019-06-23 11:00:00 25 8 Este 17 Sudeste 0 -- -- 49
2019-06-23 10:00:00 23.3 8 Sudeste 14 Este 0 -- -- 50
2019-06-23 09:00:00 19.7 3 Sur 19 Este 0 -- -- 60
2019-06-23 08:00:00 18.5 12 Nordeste 18 Este 0 -- -- 57
2019-06-23 07:00:00 17.3 13 Nordeste 17 Nordeste 0 -- -- 60
2019-06-23 06:00:00 16.6 10 Este 15 Este 0 -- -- 64
2019-06-23 05:00:00 14.9 3 Nordeste 7 Nordeste 0 -- -- 72
2019-06-23 04:00:00 15.3 3 Sudeste 10 Nordeste 0 -- -- 70
2019-06-23 03:00:00 15.3 7 Norte 15 Norte 0 -- -- 71
2019-06-23 02:00:00 15.6 9 Norte 12 Norte 0 -- -- 76
2019-06-23 01:00:00 17.1 6 Este 9 Nordeste 0 -- -- 72
2019-06-23 00:00:00 17.7 5 Nordeste 9 Nordeste 0 -- -- 67
2019-06-22 23:00:00 20.9 5 Este 18 Sudeste 0 -- -- 55
2019-06-22 22:00:00 21.9 6 Sudeste 12 Este 0 -- -- 45
2019-06-22 21:00:00 26.3 3 Sudoeste 9 Sudoeste 0 -- -- 32
2019-06-22 20:00:00 27.2 6 Oeste 15 Oeste 0 -- -- 28
2019-06-22 19:00:00 27.4 8 Oeste 22 Sudoeste 0 -- -- 28
2019-06-22 18:00:00 26.9 9 Sudoeste 22 Oeste 0 -- -- 31
2019-06-22 17:00:00 26.4 12 Oeste 23 Oeste 0 -- -- 35
2019-06-22 16:00:00 25.9 9 Oeste 25 Oeste 0 -- -- 38
2019-06-22 15:00:00 25.2 12 Sudoeste 23 Oeste 0 -- -- 42
2019-06-22 14:00:00 24 9 Oeste 21 Oeste 0 -- -- 46
2019-06-22 13:00:00 23.5 11 Oeste 21 Oeste 0 -- -- 46
2019-06-22 12:00:00 22.6 8 Noroeste 16 Oeste 0 -- -- 52
2019-06-22 11:00:00 21.1 6 Sur 12 Sudeste 0 -- -- 62
2019-06-22 10:00:00 19.2 4 Sudeste 12 Este 0 -- -- 70
2019-06-22 09:00:00 17.2 4 Este 8 Este 0 -- -- 73
2019-06-22 08:00:00 14.1 2 Oeste 9 Nordeste 0 -- -- 84
2019-06-22 07:00:00 10.8 5 Norte 9 Norte 0 -- -- 92
2019-06-22 06:00:00 11.1 3 Norte 8 Norte 0 -- -- 91
2019-06-22 05:00:00 11.4 4 Norte 12 Norte 0 -- -- 91
2019-06-22 04:00:00 12.5 3 Oeste 8 Norte 0 -- -- 86
2019-06-22 03:00:00 12.6 7 Norte 10 Norte 0 -- -- 87
2019-06-22 02:00:00 13.1 3 Nordeste 8 Norte 0 -- -- 86
2019-06-22 01:00:00 13.7 0 Calma 12 Norte 0 -- -- 84
2019-06-22 00:00:00 14.4 6 Norte 12 Nordeste 0 -- -- 81
2019-06-21 23:00:00 15.1 5 Norte 10 Nordeste 0 -- -- 77
2019-06-21 22:00:00 17.3 9 Norte 21 Noroeste 0 -- -- 63
2019-06-21 21:00:00 21.2 10 Oeste 21 Sudoeste 0 -- -- 59
2019-06-21 20:00:00 22 13 Sudoeste 25 Sudoeste 0 -- -- 57
2019-06-21 19:00:00 23.3 12 Sudoeste 25 Sudoeste 0 -- -- 52
2019-06-21 18:00:00 23.3 12 Sur 24 Sudoeste 0 -- -- 53
2019-06-21 17:00:00 22.5 10 Oeste 24 Sudoeste 0 -- -- 56
2019-06-21 16:00:00 21.3 6 Sur 21 Oeste 0 -- -- 63
2019-06-21 15:00:00 21 9 Sudoeste 22 Sudoeste 0 -- -- 63
2019-06-21 14:00:00 20.5 10 Oeste 19 Oeste 0 -- -- 68
2019-06-21 13:00:00 19.9 7 Oeste 14 Sudeste 0 -- -- 72
2019-06-21 12:00:00 19.5 9 Sur 15 Sur 0 -- -- 68
2019-06-21 11:00:00 18.4 8 Sudeste 12 Sudeste 0 -- -- 74
2019-06-21 10:00:00 18 2 Sur 8 Oeste 0 -- -- 76
2019-06-21 09:00:00 16.7 4 Oeste 8 Sudoeste 0 -- -- 86
2019-06-21 08:00:00 15 3 Noroeste 7 Este 0 -- -- 91
2019-06-21 07:00:00 14.5 0 Calma 8 Norte 0 -- -- 91
2019-06-21 06:00:00 14.7 0 Calma 7 Este 0 -- -- 89
2019-06-21 05:00:00 15 11 Este 20 Este 0 -- -- 84
2019-06-21 04:00:00 15 10 Nordeste 21 Nordeste 0 -- -- 85
2019-06-21 03:00:00 15.2 12 Nordeste 17 Nordeste 0 -- -- 83
2019-06-21 02:00:00 15.1 5 Norte 12 Nordeste 0 -- -- 89
2019-06-21 01:00:00 14.9 7 Nordeste 15 Este 0 -- -- 88
2019-06-21 00:00:00 15.1 10 Sudeste 30 Este 0 -- -- 87
2019-06-20 23:00:00 14.9 20 Nordeste 30 Este 0 -- -- 91
2019-06-20 22:00:00 15 22 Este 32 Este 0 -- -- 92
2019-06-20 21:00:00 16.3 14 Nordeste 17 Nordeste 0.2 -- -- 93
2019-06-20 20:00:00 15.3 8 Nordeste 52 Oeste 14.6 -- -- 93
2019-06-20 19:00:00 22.3 24 Sudoeste 50 Oeste 0 -- -- 57
2019-06-20 18:00:00 25.6 14 Sur 24 Sur 0 -- -- 44
2019-06-20 17:00:00 25.7 14 Sur 26 Sur 0 -- -- 45
2019-06-20 16:00:00 25.5 11 Sur 32 Sur 0 -- -- 46
2019-06-20 15:00:00 25.9 15 Sudeste 32 Sudeste 0 -- -- 46
2019-06-20 14:00:00 25.6 14 Sudeste 27 Sudeste 0 -- -- 47
2019-06-20 13:00:00 24.4 10 Sur 28 Este 0 -- -- 50
2019-06-20 12:00:00 23.6 11 Sudeste 27 Sudeste 0 -- -- 52
2019-06-20 11:00:00 22.4 13 Sudeste 25 Este 0 -- -- 59
2019-06-20 10:00:00 21.1 12 Sudeste 21 Este 0 -- -- 63
2019-06-20 09:00:00 19.7 13 Sudeste 19 Este 0 -- -- 68
2019-06-20 08:00:00 16.7 0 Calma 5 Este 0 -- -- 76
2019-06-20 07:00:00 15.1 3 Norte 10 Nordeste 0 -- -- 75
2019-06-20 06:00:00 14.6 5 Norte 16 Nordeste 0 -- -- 77
2019-06-20 05:00:00 16.3 4 Este 16 Sur 0 -- -- 77
2019-06-20 04:00:00 17 7 Nordeste 19 Norte 0 -- -- 75
2019-06-20 03:00:00 17 7 Nordeste 12 Este 0.2 -- -- 75
2019-06-20 02:00:00 18.3 7 Sudeste 12 Norte 0 -- -- 58
2019-06-20 01:00:00 17.7 4 Norte 11 Norte 0 -- -- 55
2019-06-20 00:00:00 18.2 8 Norte 12 Norte 0 -- -- 53
2019-06-19 23:00:00 19 9 Norte 12 Norte 0 -- -- 51
2019-06-19 22:00:00 20.5 5 Norte 8 Norte 0 -- -- 47
2019-06-19 21:00:00 25.8 5 Sudoeste 22 Oeste 0 -- -- 35
2019-06-19 20:00:00 26.6 10 Oeste 30 Oeste 0 -- -- 34
2019-06-19 19:00:00 27 14 Noroeste 26 Oeste 0 -- -- 32
2019-06-19 18:00:00 27.3 16 Oeste 29 Oeste 0 -- -- 32
2019-06-19 17:00:00 27 11 Oeste 30 Noroeste 0 -- -- 31
2019-06-19 16:00:00 27.1 12 Oeste 28 Sur 0 -- -- 34
2019-06-19 15:00:00 26.7 15 Sudoeste 40 Oeste 0 -- -- 33
2019-06-19 14:00:00 26.4 14 Oeste 26 Sudoeste 0 -- -- 35
2019-06-19 13:00:00 26.6 9 Sudoeste -- -- -- -- -- 32
2019-06-19 12:00:00 -- -- -- -- -- -- -- -- --
2019-06-19 11:00:00 -- -- -- -- -- -- -- -- --
2019-06-19 10:00:00 -- -- -- -- -- -- -- -- --
2019-06-19 09:00:00 -- -- -- -- -- -- -- -- --
2019-06-19 08:00:00 -- -- -- -- -- -- -- -- --
2019-06-19 07:00:00 -- -- -- -- -- -- -- -- --
2019-06-19 06:00:00 -- -- -- -- -- -- -- -- --
2019-06-19 05:00:00 -- -- -- -- -- -- -- -- --
2019-06-19 04:00:00 -- -- -- -- -- -- -- -- --
2019-06-19 03:00:00 -- -- -- -- -- -- -- -- --
2019-06-19 02:00:00 -- -- -- -- -- -- -- -- --
2019-06-19 01:00:00 -- -- -- -- -- -- -- -- --
2019-06-19 00:00:00 -- -- -- -- -- -- -- -- --
2019-06-18 23:00:00 -- -- -- -- -- -- -- -- --
2019-06-18 22:00:00 -- -- -- -- -- -- -- -- --
2019-06-18 21:00:00 -- -- -- -- -- -- -- -- --
2019-06-18 20:00:00 -- -- -- -- -- -- -- -- --
2019-06-18 19:00:00 28.2 17 Sudeste 34 Sudeste 0 -- -- 30
2019-06-18 18:00:00 28.9 21 Sudeste 33 Sudeste 0 -- -- 29
2019-06-18 17:00:00 29.5 19 Sudeste 35 Sudeste 0 -- -- 29
2019-06-18 16:00:00 29.6 15 Sur 33 Sudeste 0 -- -- 26
2019-06-18 15:00:00 29.3 17 Sudeste 32 Sudeste 0 -- -- 25
2019-06-18 14:00:00 28.2 11 Sur 27 Sudeste 0 -- -- 28
2019-06-18 13:00:00 27.5 12 Sudeste 25 Sudeste 0 -- -- 30
2019-06-18 12:00:00 25.7 12 Sur 26 Este 0 -- -- 33
2019-06-18 11:00:00 25.1 17 Este 30 Este 0 -- -- 41
2019-06-18 10:00:00 22 16 Este 23 Este 0 -- -- 47
2019-06-18 09:00:00 20.4 3 Sudoeste 13 Sudeste 0 -- -- 54
2019-06-18 08:00:00 18.6 7 Este 20 Este 0 -- -- 59
2019-06-18 07:00:00 17.6 6 Este 23 Nordeste 0 -- -- 56
2019-06-18 06:00:00 16.6 7 Este 9 Sudeste 0 -- -- 59
2019-06-18 05:00:00 16.8 8 Este 18 Este 0 -- -- 59
2019-06-18 04:00:00 18.4 8 Este 18 Nordeste 0 -- -- 53
2019-06-18 03:00:00 18.1 9 Este 14 Este 0 -- -- 56
2019-06-18 02:00:00 17.5 6 Nordeste 15 Este 0 -- -- 59
2019-06-18 01:00:00 18 7 Este 12 Este 0 -- -- 60
2019-06-18 00:00:00 18.8 10 Este 16 Sudeste 0 -- -- 61
2019-06-17 23:00:00 20.8 9 Sudeste 26 Sudeste 0 -- -- 55
2019-06-17 22:00:00 22.7 12 Sur 22 Sudeste 0 -- -- 54
2019-06-17 21:00:00 26.6 7 Sur 16 Sudoeste 0 -- -- 28
2019-06-17 20:00:00 27.9 9 Sur 21 Sudoeste 0 -- -- 26
2019-06-17 19:00:00 28.7 9 Oeste 26 Oeste 0 -- -- 26
2019-06-17 18:00:00 28.8 11 Noroeste 24 Oeste 0 -- -- 27
2019-06-17 17:00:00 28.7 12 Oeste 26 Noroeste 0 -- -- 27
2019-06-17 16:00:00 28.2 10 Noroeste 24 Oeste 0 -- -- 29
2019-06-17 15:00:00 28.4 15 Oeste 27 Oeste 0 -- -- 32
2019-06-17 14:00:00 26.5 10 Sudoeste 24 Este 0 -- -- 36
2019-06-17 13:00:00 28.3 4 Nordeste 17 Sur 0 -- -- 31
2019-06-17 12:00:00 25.6 9 Sudeste 19 Sur 0 -- -- 33
2019-06-17 11:00:00 25 11 Sudeste 17 Este 0 -- -- 38
2019-06-17 10:00:00 23.3 9 Este 27 Este 0 -- -- 39
2019-06-17 09:00:00 20.8 16 Este 24 Este 0 -- -- 46
2019-06-17 08:00:00 18.6 12 Este 20 Este 0 -- -- 54
2019-06-17 07:00:00 13.9 6 Este 12 Nordeste 0 -- -- 68
2019-06-17 06:00:00 12.2 4 Nordeste 12 Norte 0 -- -- 71
2019-06-17 05:00:00 12.2 12 Norte 15 Norte 0 -- -- 73
2019-06-17 04:00:00 12.7 9 Norte 14 Norte 0 -- -- 71
2019-06-17 03:00:00 13.7 12 Norte 15 Norte 0 -- -- 62
2019-06-17 02:00:00 13.9 12 Norte 15 Norte 0 -- -- 67
2019-06-17 01:00:00 14.7 8 Norte 12 Norte 0 -- -- 72
2019-06-17 00:00:00 16.3 4 Este 9 Este 0 -- -- 67
2019-06-16 23:00:00 18.5 5 Este 15 Sudeste 0 -- -- 59
2019-06-16 22:00:00 20.3 9 Sudeste 14 Sudeste 0 -- -- 48
2019-06-16 21:00:00 23.7 4 Sudeste 12 Sur 0 -- -- 36
2019-06-16 20:00:00 25.3 2 Oeste 16 Oeste 0 -- -- 30
2019-06-16 19:00:00 25.9 7 Oeste 23 Oeste 0 -- -- 30
2019-06-16 18:00:00 25.9 8 Oeste 23 Oeste 0 -- -- 32
2019-06-16 17:00:00 26.1 9 Noroeste 22 Oeste 0 -- -- 31
2019-06-16 16:00:00 25.6 15 Noroeste 26 Oeste 0 -- -- 32
2019-06-16 15:00:00 24.6 14 Oeste 31 Oeste 0 -- -- 35
2019-06-16 14:00:00 23.6 15 Noroeste 26 Noroeste 0 -- -- 39
2019-06-16 13:00:00 22.8 15 Oeste 25 Oeste 0 -- -- 46
2019-06-16 12:00:00 21.9 6 Sudoeste 13 Sudoeste 0 -- -- 48
2019-06-16 11:00:00 20.5 5 Sudeste 13 Sudeste 0 -- -- 53
2019-06-16 10:00:00 17.8 5 Sur 12 Este 0 -- -- 62
2019-06-16 09:00:00 16 6 Sudeste 10 Sur 0 -- -- 72
2019-06-16 08:00:00 12.3 4 Norte 9 Norte 0 -- -- 82
2019-06-16 07:00:00 9 4 Norte 10 Norte 0 -- -- 89
2019-06-16 06:00:00 8.9 5 Norte 8 Norte 0 -- -- 87
2019-06-16 05:00:00 9.1 3 Nordeste 6 Nordeste 0 -- -- 82
2019-06-16 04:00:00 10.1 5 Este 11 Este 0 -- -- 74
2019-06-16 03:00:00 11.1 6 Este 11 Sudeste 0 -- -- 65
2019-06-16 02:00:00 10.4 4 Nordeste 15 Norte 0 -- -- 65
2019-06-16 01:00:00 11.2 9 Norte 13 Norte 0 -- -- 62
2019-06-16 00:00:00 12.9 7 Norte 14 Noroeste 0 -- -- 55
2019-06-15 23:00:00 14.7 10 Noroeste 18 Noroeste 0 -- -- 49
2019-06-15 22:00:00 18.9 8 Oeste 22 Oeste 0 -- -- 39
2019-06-15 21:00:00 21.4 12 Oeste 31 Sudoeste 0 -- -- 32
2019-06-15 20:00:00 22.6 14 Sudoeste 32 Oeste 0 -- -- 30
2019-06-15 19:00:00 23.2 17 Oeste 33 Sudoeste 0 -- -- 32
2019-06-15 18:00:00 23.3 14 Oeste 37 Oeste 0 -- -- 35
2019-06-15 17:00:00 23.6 18 Sudoeste 35 Oeste 0 -- -- 34
2019-06-15 16:00:00 23.6 12 Oeste 29 Noroeste 0 -- -- 35
2019-06-15 15:00:00 23 12 Sudoeste 28 Sudoeste 0 -- -- 38
2019-06-15 14:00:00 21.7 13 Oeste 28 Oeste 0 -- -- 40
2019-06-15 13:00:00 20.6 16 Oeste 27 Oeste 0 -- -- 52
2019-06-15 12:00:00 19.6 13 Oeste 22 Oeste 0 -- -- 58
2019-06-15 11:00:00 19.7 9 Sudoeste 23 Sur 0 -- -- 61
2019-06-15 10:00:00 18.4 5 Sudeste 10 Este 0 -- -- 60
2019-06-15 09:00:00 17.1 5 Este 13 Este 0 -- -- 70
2019-06-15 08:00:00 13.2 6 Nordeste 11 Este 0 -- -- 88
2019-06-15 07:00:00 11.2 4 Norte 10 Norte 0 -- -- 89
2019-06-15 06:00:00 11.4 6 Norte 11 Norte 0 -- -- 86
2019-06-15 05:00:00 13.8 3 Norte 10 Noroeste 0 -- -- 80
2019-06-15 04:00:00 15.2 4 Norte 8 Norte 0 -- -- 76
2019-06-15 03:00:00 15.9 6 Norte 40 Oeste 0 -- -- 73
2019-06-15 02:00:00 15.9 10 Sudoeste 31 Oeste 0 -- -- 72
2019-06-15 01:00:00 16.2 8 Este 11 Este 0 -- -- 70
2019-06-15 00:00:00 15.9 6 Este 10 Este 0 -- -- 67
2019-06-14 23:00:00 17.6 7 Este 11 Este 0 -- -- 61
2019-06-14 22:00:00 18.5 4 Sudeste 9 Sudeste 0 -- -- 57
2019-06-14 21:00:00 24.2 3 Sudoeste 10 Oeste 0 -- -- 40
2019-06-14 20:00:00 24.1 8 Noroeste 17 Noroeste 0 -- -- 42
2019-06-14 19:00:00 24.3 12 Oeste 24 Oeste 0 -- -- 42
2019-06-14 18:00:00 24.3 11 Oeste 25 Oeste 0 -- -- 43
2019-06-14 17:00:00 23.4 14 Oeste 27 Noroeste 0 -- -- 45
2019-06-14 16:00:00 22.3 9 Sudoeste 31 Noroeste 0 -- -- 49
2019-06-14 15:00:00 20.9 13 Oeste 30 Oeste 0 -- -- 52
2019-06-14 14:00:00 21.6 20 Oeste 30 Sudoeste 0 -- -- 47
2019-06-14 13:00:00 22.7 8 Sudoeste 24 Sudeste 0 -- -- 46
2019-06-14 12:00:00 21.8 14 Sudeste 22 Este 0 -- -- 49
2019-06-14 11:00:00 20.1 6 Noroeste 26 Noroeste 0 -- -- 49
2019-06-14 10:00:00 18.3 17 Noroeste 27 Noroeste 0 -- -- 50
2019-06-14 09:00:00 17.7 7 Oeste 17 Noroeste 0 -- -- 56
2019-06-14 08:00:00 15.1 4 Oeste 11 Norte 0 -- -- 61
2019-06-14 07:00:00 13.4 6 Norte 10 Norte 0 -- -- 66
2019-06-14 06:00:00 13.5 6 Sudeste 18 Noroeste 0 -- -- 61
2019-06-14 05:00:00 14.5 13 Norte 18 Norte 0 -- -- 58
2019-06-14 04:00:00 12.7 10 Norte 19 Nordeste 0 -- -- 65
2019-06-14 03:00:00 14.3 10 Nordeste 16 Nordeste 0 -- -- 55
2019-06-14 02:00:00 14.4 4 Este 23 Nordeste 0 -- -- 56
2019-06-14 01:00:00 14.5 13 Nordeste 21 Nordeste 0 -- -- 54
2019-06-14 00:00:00 14.3 5 Nordeste 17 Este 0 -- -- 54
2019-06-13 23:00:00 16.6 13 Sudeste 33 Sudeste 0 -- -- 45
2019-06-13 22:00:00 17.9 19 Sudeste 33 Sudeste 0 -- -- 45
2019-06-13 21:00:00 19.1 15 Sudeste 34 Sudeste 0 -- -- 52
2019-06-13 20:00:00 19.5 14 Sudeste 37 Sudeste 0 -- -- 50
2019-06-13 19:00:00 21 17 Sudeste 32 Sudeste 0 -- -- 46
2019-06-13 18:00:00 23.4 18 Sudeste 32 Sur 0 -- -- 37
2019-06-13 17:00:00 23.5 17 Sur 29 Sudeste 0 -- -- 36
2019-06-13 16:00:00 22.6 15 Sudeste 29 Sudeste 0 -- -- 40
2019-06-13 15:00:00 22.5 13 Sudeste 38 Este 0 -- -- 42
2019-06-13 14:00:00 22.1 16 Sudeste 28 Este 0 -- -- 45
2019-06-13 13:00:00 20 17 Sudeste 31 Este 0 -- -- 50
2019-06-13 12:00:00 19.4 17 Este 28 Este 0 -- -- 52
2019-06-13 11:00:00 18.2 14 Sudeste 26 Este 0 -- -- 50
2019-06-13 10:00:00 16.9 14 Este 30 Este 0 -- -- 50
2019-06-13 09:00:00 15.2 21 Este 29 Este 0 -- -- 49
2019-06-13 08:00:00 12.8 14 Este 25 Este 0 -- -- 57
2019-06-13 07:00:00 8.9 8 Este 20 Este 0 -- -- 71
2019-06-13 06:00:00 9.1 9 Este 19 Este 0 -- -- 73
2019-06-13 05:00:00 10.8 14 Este 24 Nordeste 0 -- -- 67
2019-06-13 04:00:00 10.5 14 Nordeste 22 Este 0 -- -- 67
2019-06-13 03:00:00 9.3 5 Este 10 Este 0 -- -- 74
2019-06-13 02:00:00 9.9 6 Este 12 Este 0 -- -- 70
2019-06-13 01:00:00 10.3 8 Este 12 Este 0 -- -- 65
2019-06-13 00:00:00 10.9 7 Este 12 Sudeste 0 -- -- 59
2019-06-12 23:00:00 11.4 4 Nordeste 13 Este 0 -- -- 59
2019-06-12 22:00:00 14.9 7 Sudeste 18 Sur 0 -- -- 46
2019-06-12 21:00:00 18.3 6 Sur 15 Oeste 0 -- -- 32
2019-06-12 20:00:00 19 9 Sudoeste 24 Oeste 0 -- -- 31
2019-06-12 19:00:00 19.1 12 Oeste 28 Oeste 0 -- -- 31
2019-06-12 18:00:00 18.8 13 Oeste 28 Oeste 0 -- -- 30
2019-06-12 17:00:00 18.2 12 Oeste 29 Oeste 0 -- -- 33
2019-06-12 16:00:00 17.2 11 Oeste 27 Oeste 0 -- -- 41
2019-06-12 15:00:00 16.3 12 Oeste 30 Oeste 0 -- -- 41
2019-06-12 14:00:00 16.3 12 Sudoeste 23 Oeste 0 -- -- 44
2019-06-12 13:00:00 15.6 16 Oeste 42 Oeste 0 -- -- 43
2019-06-12 12:00:00 14.7 12 Oeste 28 Oeste 0 -- -- 44
2019-06-12 11:00:00 12.8 10 Oeste 19 Sudoeste 0 -- -- 48
2019-06-12 10:00:00 11.1 8 Oeste 13 Oeste 0 -- -- 69
2019-06-12 09:00:00 9.3 5 Oeste 12 Noroeste 0 -- -- 81
2019-06-12 08:00:00 7.7 6 Noroeste 12 Norte 0 -- -- 88
2019-06-12 07:00:00 3.3 9 Norte 12 Norte 0 -- -- 94
2019-06-12 06:00:00 3.6 8 Norte 12 Norte 0 -- -- 93
2019-06-12 05:00:00 4 7 Norte 14 Norte 0 -- -- 93
2019-06-12 04:00:00 4.8 6 Noroeste 12 Noroeste 0 -- -- 90
2019-06-12 03:00:00 4.7 6 Norte 12 Norte 0 -- -- 92
2019-06-12 02:00:00 5.4 11 Norte 16 Norte 0 -- -- 90
2019-06-12 01:00:00 5.8 9 Norte 17 Norte 0 -- -- 89
2019-06-12 00:00:00 6.7 6 Norte 9 Norte 0 -- -- 86
2019-06-11 23:00:00 8.2 4 Norte 15 Nordeste 0 -- -- 83
2019-06-11 22:00:00 9.7 12 Nordeste 22 Nordeste 0 -- -- 74
2019-06-11 21:00:00 12.1 13 Este 21 Este 0.8 -- -- 71
2019-06-11 20:00:00 13 7 Este 16 Sudeste 0 -- -- 74
2019-06-11 19:00:00 14.8 10 Sudeste 22 Este 0 -- -- 69
2019-06-11 18:00:00 13.8 4 Sudeste 15 Este 0 -- -- 67
2019-06-11 17:00:00 14.1 7 Noroeste 23 Oeste 0 -- -- 61
2019-06-11 16:00:00 14.4 9 Oeste 21 Oeste 0 -- -- 63
2019-06-11 15:00:00 12 10 Oeste 18 Sudoeste 0 -- -- 77
2019-06-11 14:00:00 11.5 8 Oeste 13 Oeste 0 -- -- 84
2019-06-11 13:00:00 11 3 Sur 8 Sur 0.2 -- -- 85
2019-06-11 12:00:00 10 4 Oeste 13 Sudoeste 0.8 -- -- 92
2019-06-11 11:00:00 9.6 9 Sur 16 Sudeste 0.6 -- -- 91
2019-06-11 10:00:00 9.7 7 Sudeste 9 Sudeste 0 -- -- 92
2019-06-11 09:00:00 9.9 5 Sudeste 8 Sudeste 0.2 -- -- 92
2019-06-11 08:00:00 9.6 0 Calma 6 Noroeste 0.2 -- -- 92
2019-06-11 07:00:00 9.1 5 Noroeste 13 Noroeste 0.2 -- -- 94
2019-06-11 06:00:00 9.3 8 Noroeste 12 Noroeste 0.2 -- -- 92
2019-06-11 05:00:00 9.3 6 Norte 17 Noroeste 0.6 -- -- 92
2019-06-11 04:00:00 9.9 12 Norte 20 Norte 0.2 -- -- 82
2019-06-11 03:00:00 11 12 Noroeste 22 Noroeste 0 -- -- 71
2019-06-11 02:00:00 12.5 13 Noroeste 26 Noroeste 0 -- -- 59
2019-06-11 01:00:00 11.7 5 Nordeste 13 Este 0 -- -- 59
2019-06-11 00:00:00 11.6 2 Noroeste 10 Noroeste 0 -- -- 59
2019-06-10 23:00:00 12.8 4 Norte 14 Oeste 0 -- -- 54
2019-06-10 22:00:00 16.5 10 Oeste 19 Oeste 0 -- -- 43
2019-06-10 21:00:00 18.9 10 Oeste 26 Oeste 0 -- -- 34
2019-06-10 20:00:00 19.8 15 Oeste 37 Oeste 0 -- -- 25
2019-06-10 19:00:00 20.5 21 Oeste 39 Oeste 0 -- -- 24
2019-06-10 18:00:00 22.2 23 Sudoeste 40 Sudoeste 0 -- -- 30
2019-06-10 17:00:00 22.9 20 Sudoeste 38 Sudoeste 0 -- -- 36
2019-06-10 16:00:00 22.5 17 Sudoeste 31 Oeste 0 -- -- 38
2019-06-10 15:00:00 21.4 14 Sudoeste 28 Oeste 0 -- -- 45
2019-06-10 14:00:00 21 12 Sudoeste 29 Sudoeste 0 -- -- 49
2019-06-10 13:00:00 20.5 11 Sur 25 Sudoeste 0 -- -- 54
2019-06-10 12:00:00 19.4 10 Sur 25 Sudeste 0 -- -- 57
2019-06-10 11:00:00 18.3 10 Sudeste 19 Sur 0 -- -- 58
2019-06-10 10:00:00 17.1 7 Sudeste 12 Sudeste 0 -- -- 57
2019-06-10 09:00:00 15.2 8 Este 13 Sudeste 0 -- -- 62
2019-06-10 08:00:00 12.5 5 Norte 10 Sudeste 0 -- -- 80
2019-06-10 07:00:00 11.8 12 Oeste 24 Nordeste 0.6 -- -- 69
2019-06-10 06:00:00 11.6 3 Este 15 Norte 0 -- -- 61
2019-06-10 05:00:00 11.6 9 Norte 14 Norte 0 -- -- 59
2019-06-10 04:00:00 12.4 9 Norte 12 Norte 0 -- -- 57
2019-06-10 03:00:00 13.3 4 Este 8 Nordeste 0 -- -- 52
2019-06-10 02:00:00 14.3 9 Nordeste 13 Nordeste 0 -- -- 49
2019-06-10 01:00:00 14.7 7 Norte 12 Norte 0 -- -- 53
2019-06-10 00:00:00 18.3 9 Sudeste 15 Sudeste 0 -- -- 39
2019-06-09 23:00:00 19.6 6 Sudeste 19 Este 0 -- -- 41
2019-06-09 22:00:00 20.6 8 Sudeste 12 Sudeste 0 -- -- 44
2019-06-09 21:00:00 24.4 5 Oeste 16 Oeste 0 -- -- 36
2019-06-09 20:00:00 24.9 13 Oeste 22 Oeste 0 -- -- 34
2019-06-09 19:00:00 24.5 12 Oeste 25 Oeste 0 -- -- 35
2019-06-09 18:00:00 27 6 Sudoeste 22 Sudoeste 0 -- -- 30
2019-06-09 17:00:00 26.6 5 Este 18 Sur 0 -- -- 29
2019-06-09 16:00:00 25.6 12 Sudeste 22 Sur 0 -- -- 33
2019-06-09 15:00:00 25.2 10 Sudeste 24 Este 0 -- -- 33
2019-06-09 14:00:00 25.9 8 Sudeste 23 Sudeste 0 -- -- 33
2019-06-09 13:00:00 25.4 13 Este 24 Este 0 -- -- 34
2019-06-09 12:00:00 23.5 7 Sudeste 25 Sudeste 0 -- -- 36
2019-06-09 11:00:00 22.4 12 Sudeste 27 Sudeste 0 -- -- 38
2019-06-09 10:00:00 20.3 10 Sudeste 19 Sudeste 0 -- -- 45
2019-06-09 09:00:00 17.4 2 Sudeste 9 Noroeste 0 -- -- 63
2019-06-09 08:00:00 14.8 4 Sudeste 12 Oeste 0 -- -- 74
2019-06-09 07:00:00 13.9 9 Norte 14 Nordeste 0 -- -- 73
2019-06-09 06:00:00 15.5 10 Este 23 Este 0 -- -- 61
2019-06-09 05:00:00 14.8 7 Este 16 Este 0 -- -- 66
2019-06-09 04:00:00 15.5 10 Este 18 Sudeste 0 -- -- 56
2019-06-09 03:00:00 15.1 13 Este 19 Este 0 -- -- 60
2019-06-09 02:00:00 15.2 11 Este 26 Este 0 -- -- 61
2019-06-09 01:00:00 15.1 2 Sudoeste 14 Sudeste 0 -- -- 64
2019-06-09 00:00:00 15.5 12 Este 17 Este 0 -- -- 61
2019-06-08 23:00:00 16.5 11 Este 20 Este 0 -- -- 58
2019-06-08 22:00:00 17 9 Sudeste 17 Sur 0 -- -- 53
2019-06-08 21:00:00 18.3 7 Sur 23 Sudeste 0 -- -- 47
2019-06-08 20:00:00 19.8 11 Sudeste 30 Sur 0 -- -- 47
2019-06-08 19:00:00 21.7 17 Sur 28 Sur 0 -- -- 42
2019-06-08 18:00:00 22.8 14 Sudeste 31 Sur 0 -- -- 39
2019-06-08 17:00:00 23.1 15 Sur 30 Sudeste 0 -- -- 37
2019-06-08 16:00:00 24.6 13 Sudeste 27 Sudeste 0 -- -- 40
2019-06-08 15:00:00 23.3 8 Sudeste 23 Sudeste 0 -- -- 38
2019-06-08 14:00:00 22.8 6 Este 18 Este 0 -- -- 36
2019-06-08 13:00:00 21.9 7 Sudeste 18 Sudeste 0 -- -- 37
2019-06-08 12:00:00 20.2 6 Sudeste 20 Este 0 -- -- 44
2019-06-08 11:00:00 18.7 8 Sur 15 Sudoeste 0 -- -- 47
2019-06-08 10:00:00 16.4 8 Sudeste 14 Sudeste 0 -- -- 55
2019-06-08 09:00:00 14.8 7 Este 13 Este 0 -- -- 47
2019-06-08 08:00:00 10.5 6 Nordeste 14 Nordeste 0 -- -- 58
2019-06-08 07:00:00 6.4 4 Norte 14 Norte 0 -- -- 64
2019-06-08 06:00:00 6.4 4 Nordeste 16 Norte 0 -- -- 63
2019-06-08 05:00:00 6.2 11 Norte 15 Norte 0 -- -- 64
2019-06-08 04:00:00 7 7 Norte 13 Norte 0 -- -- 59
2019-06-08 03:00:00 7.5 9 Norte 14 Norte 0 -- -- 58
2019-06-08 02:00:00 8 11 Norte 14 Norte 0 -- -- 56
2019-06-08 01:00:00 9.8 9 Norte 12 Norte 0 -- -- 50
2019-06-08 00:00:00 10.9 6 Noroeste 12 Oeste 0 -- -- 47
2019-06-07 23:00:00 14.7 10 Noroeste 16 Norte 0 -- -- 39
2019-06-07 22:00:00 14.2 11 Noroeste 24 Noroeste 0 -- -- 40
2019-06-07 21:00:00 17.7 15 Noroeste 26 Oeste 0 -- -- 35
2019-06-07 20:00:00 19.1 15 Oeste 37 Oeste 0 -- -- 36
2019-06-07 19:00:00 19.6 14 Oeste 34 Oeste 0 -- -- 36
2019-06-07 18:00:00 19.7 15 Oeste 35 Oeste 0 -- -- 37
2019-06-07 17:00:00 19.6 17 Oeste 33 Oeste 0 -- -- 35
2019-06-07 16:00:00 19.3 17 Oeste 32 Oeste 0 -- -- 30
2019-06-07 15:00:00 18.8 20 Oeste 36 Oeste 0 -- -- 31
2019-06-07 14:00:00 18.3 17 Oeste 36 Oeste 0 -- -- 40
2019-06-07 13:00:00 17.3 13 Oeste 35 Oeste 0 -- -- 47
2019-06-07 12:00:00 14.8 15 Oeste 27 Noroeste 0 -- -- 59
2019-06-07 11:00:00 13.6 18 Oeste 42 Oeste 0 -- -- 67
2019-06-07 10:00:00 13.2 27 Oeste 46 Oeste 0 -- -- 85
2019-06-07 09:00:00 14.9 12 Este 22 Este 0 -- -- 71
2019-06-07 08:00:00 13.2 12 Este 18 Este 0 -- -- 74
2019-06-07 07:00:00 10.2 13 Este 17 Este 0 -- -- 81
2019-06-07 06:00:00 10.3 10 Este 19 Este 0 -- -- 78
2019-06-07 05:00:00 10.4 9 Este 12 Este 0 -- -- 73
2019-06-07 04:00:00 11.5 8 Este 13 Este 0 -- -- 68
2019-06-07 03:00:00 12 9 Este 18 Este 0 -- -- 66
2019-06-07 02:00:00 11.4 10 Este 19 Este 0 -- -- 70
2019-06-07 01:00:00 12.5 14 Este 23 Sudeste 0 -- -- 66
2019-06-07 00:00:00 13.5 17 Este 39 Sudeste 0 -- -- 60
2019-06-06 23:00:00 14.4 22 Este 40 Sudeste 0 -- -- 58
2019-06-06 22:00:00 15.2 24 Sudeste 43 Sudeste 0 -- -- 59
2019-06-06 21:00:00 16.5 28 Sudeste 43 Sudeste 0 -- -- 56
2019-06-06 20:00:00 16.6 23 Sudeste 40 Sudeste 0 -- -- 58
2019-06-06 19:00:00 17.8 23 Sudeste 38 Este 0 -- -- 53
2019-06-06 18:00:00 18.8 20 Sudeste 48 Este 0 -- -- 52
2019-06-06 17:00:00 19.5 24 Sudeste 48 Sudeste 0 -- -- 47
2019-06-06 16:00:00 21.7 10 Sudeste 35 Sur 0 -- -- 35
2019-06-06 15:00:00 20.7 16 Sur 32 Sudeste 0 -- -- 36
2019-06-06 14:00:00 19.2 14 Sudeste 39 Sudeste 0 -- -- 40
2019-06-06 13:00:00 18.6 14 Sudeste 29 Sur 0 -- -- 43
2019-06-06 12:00:00 17.6 15 Sur 29 Sur 0 -- -- 44
2019-06-06 11:00:00 16.9 8 Sudeste 18 Sudeste 0 -- -- 52
2019-06-06 10:00:00 15.6 9 Este 16 Sudeste 0 -- -- 59
2019-06-06 09:00:00 13 9 Sudeste 14 Este 0 -- -- 67
2019-06-06 08:00:00 9.5 3 Sudeste 6 Noroeste 0 -- -- 78
2019-06-06 07:00:00 6.6 4 Norte 10 Norte 0 -- -- 87
2019-06-06 06:00:00 6.7 3 Nordeste 10 Norte 0 -- -- 87
2019-06-06 05:00:00 6.7 7 Norte 14 Norte 0 -- -- 88
2019-06-06 04:00:00 7.6 7 Norte 9 Noroeste 0 -- -- 84
2019-06-06 03:00:00 7.6 5 Norte 12 Noroeste 0 -- -- 82
2019-06-06 02:00:00 8.4 8 Norte 14 Norte 0 -- -- 80
2019-06-06 01:00:00 8.9 8 Norte 15 Noroeste 0 -- -- 78
2019-06-06 00:00:00 11.4 12 Oeste 16 Oeste 0 -- -- 68
2019-06-05 23:00:00 12.3 15 Noroeste 26 Noroeste 0 -- -- 66
2019-06-05 22:00:00 13.2 12 Noroeste 28 Noroeste 0 -- -- 64
2019-06-05 21:00:00 15.8 17 Oeste 30 Oeste 0 -- -- 56
2019-06-05 20:00:00 17.4 17 Oeste 33 Oeste 0 -- -- 50
2019-06-05 19:00:00 17.9 14 Oeste 27 Oeste 0 -- -- 48
2019-06-05 18:00:00 17 14 Noroeste 32 Oeste 0 -- -- 55
2019-06-05 17:00:00 17.6 20 Oeste 39 Oeste 0 -- -- 50
2019-06-05 16:00:00 17.7 20 Oeste 41 Sudoeste 0 -- -- 55
2019-06-05 15:00:00 16.8 18 Sudoeste 31 Sudoeste 0 -- -- 64
2019-06-05 14:00:00 14.7 12 Noroeste 21 Oeste 0 -- -- 79
2019-06-05 13:00:00 12 8 Oeste 20 Oeste 0 -- -- 95
2019-06-05 12:00:00 12.5 14 Oeste 35 Sudoeste 0.8 -- -- 91
2019-06-05 11:00:00 14.7 10 Sudeste 28 Sudeste 0 -- -- 79
2019-06-05 10:00:00 16.2 14 Sudeste 27 Sudeste 0 -- -- 71
2019-06-05 09:00:00 15.1 13 Sur 21 Sur 0 -- -- 75
2019-06-05 08:00:00 14.6 9 Sudeste 27 Sudeste 0 -- -- 70
2019-06-05 07:00:00 14.9 14 Sudeste 33 Sudeste 0 -- -- 58
2019-06-05 06:00:00 14.8 11 Sudeste 23 Sudeste 0 -- -- 50
2019-06-05 05:00:00 14.6 15 Este 19 Este 0 -- -- 46
2019-06-05 04:00:00 15.5 12 Este 15 Este 0 -- -- 43
2019-06-05 03:00:00 15.8 8 Este 18 Este 0 -- -- 42
2019-06-05 02:00:00 16.9 13 Este 25 Este 0 -- -- 42
2019-06-05 01:00:00 17.6 17 Este 23 Este 0 -- -- 41
2019-06-05 00:00:00 18.4 17 Sudeste 30 Sudeste 0 -- -- 41
2019-06-04 23:00:00 19.1 23 Sudeste 33 Este 0 -- -- 44
2019-06-04 22:00:00 20.2 24 Sudeste 41 Sudeste 0 -- -- 42
2019-06-04 21:00:00 22.2 25 Sudeste 39 Este 0 -- -- 37
2019-06-04 20:00:00 24.2 19 Sudeste 43 Este 0 -- -- 39
2019-06-04 19:00:00 25.9 29 Sudeste 41 Sudeste 0 -- -- 33
2019-06-04 18:00:00 28.2 19 Sudeste 35 Sudeste 0 -- -- 31
2019-06-04 17:00:00 28.5 17 Sur 26 Sudeste 0 -- -- 29
2019-06-04 16:00:00 28.5 11 Sudeste 29 Sudeste 0 -- -- 28
2019-06-04 15:00:00 28.3 11 Sudeste 28 Sudeste 0 -- -- 29
2019-06-04 14:00:00 27.3 12 Sudeste 22 Sudeste 0 -- -- 30
2019-06-04 13:00:00 26.4 10 Sudeste 24 Sudeste 0 -- -- 33
2019-06-04 12:00:00 24.4 12 Sur 21 Sur 0 -- -- 31
2019-06-04 11:00:00 23.7 8 Sudeste 16 Sudeste 0 -- -- 35
2019-06-04 10:00:00 20.1 8 Sur 12 Sur 0 -- -- 46
2019-06-04 09:00:00 18.4 4 Este 7 Este 0 -- -- 56
2019-06-04 08:00:00 16.5 3 Este 9 Sudeste 0 -- -- 60
2019-06-04 07:00:00 13.9 6 Sudeste 10 Sudeste 0 -- -- 60
2019-06-04 06:00:00 13.8 7 Este 9 Este 0 -- -- 59
2019-06-04 05:00:00 14.5 4 Este 10 Este 0 -- -- 62
2019-06-04 04:00:00 15 4 Este 8 Este 0 -- -- 55
2019-06-04 03:00:00 14.6 6 Este 9 Este 0 -- -- 57
2019-06-04 02:00:00 15.5 8 Este 14 Este 0 -- -- 55
2019-06-04 01:00:00 16.6 12 Este 15 Este 0 -- -- 52
2019-06-04 00:00:00 17.6 9 Sudeste 14 Este 0 -- -- 50
2019-06-03 23:00:00 19.3 10 Sudeste 21 Este 0 -- -- 46
2019-06-03 22:00:00 21 13 Sudeste 21 Sudeste 0 -- -- 43
2019-06-03 21:00:00 23.2 13 Sudeste 21 Sudeste 0 -- -- 41
2019-06-03 20:00:00 25.1 14 Sudeste 35 Sudeste 0 -- -- 38
2019-06-03 19:00:00 26.5 17 Sur 31 Sur 0 -- -- 35
2019-06-03 18:00:00 27.6 19 Sur 27 Sudeste 0 -- -- 32
2019-06-03 17:00:00 27.9 12 Sudeste 26 Sur 0 -- -- 29
2019-06-03 16:00:00 28.1 10 Sudeste 24 Sudeste 0 -- -- 30
2019-06-03 15:00:00 27.9 12 Sudeste 26 Sudeste 0 -- -- 28
2019-06-03 14:00:00 26.2 10 Sudeste 24 Sudeste 0 -- -- 34
2019-06-03 13:00:00 26.3 8 Sudeste 20 Sur 0 -- -- 39
2019-06-03 12:00:00 23.4 8 Este 16 Sudeste 0 -- -- 49
2019-06-03 11:00:00 22.8 6 Sudeste 10 Sudeste 0 -- -- 44
2019-06-03 10:00:00 22.1 6 Sur 13 Este 0 -- -- 48
2019-06-03 09:00:00 22 9 Este 21 Este 0 -- -- 52
2019-06-03 08:00:00 18.5 11 Nordeste 18 Nordeste 0 -- -- 59
2019-06-03 07:00:00 17 6 Norte 22 Este 0 -- -- 56
2019-06-03 06:00:00 17.3 7 Sudeste 31 Este 0 -- -- 55
2019-06-03 05:00:00 16.2 14 Nordeste 23 Nordeste 0 -- -- 52
2019-06-03 04:00:00 15.7 5 Norte 13 Nordeste 0 -- -- 58
2019-06-03 03:00:00 16.6 11 Nordeste 17 Noroeste 0 -- -- 54
2019-06-03 02:00:00 17.4 15 Noroeste 19 Noroeste 0 -- -- 50
2019-06-03 01:00:00 15 10 Norte 13 Norte 0 -- -- 62
2019-06-03 00:00:00 18.6 6 Este 11 Este 0 -- -- 49
2019-06-02 23:00:00 19.6 6 Este 19 Este 0 -- -- 47
2019-06-02 22:00:00 21.7 9 Sudeste 19 Sudeste 0 -- -- 45
2019-06-02 21:00:00 24.3 10 Sudeste 24 Sudeste 0 -- -- 40
2019-06-02 20:00:00 26.6 13 Sur 24 Sudoeste 0 -- -- 34
2019-06-02 19:00:00 28 12 Sur 23 Sur 0 -- -- 29
2019-06-02 18:00:00 28.8 12 Sur 27 Sudoeste 0 -- -- 29
2019-06-02 17:00:00 29.3 12 Sudoeste 23 Sur 0 -- -- 28
2019-06-02 16:00:00 29.1 12 Sudoeste 27 Sudoeste 0 -- -- 29
2019-06-02 15:00:00 28.7 11 Sudoeste 25 Sudoeste 0 -- -- 30
2019-06-02 14:00:00 27.8 12 Noroeste 28 Oeste 0 -- -- 34
2019-06-02 13:00:00 27.2 9 Noroeste 17 Noroeste 0 -- -- 31
2019-06-02 12:00:00 25.4 7 Oeste 15 Oeste 0 -- -- 39
2019-06-02 11:00:00 23.7 8 Noroeste 14 Noroeste 0 -- -- 40
2019-06-02 10:00:00 21.8 4 Sudoeste 8 Sudoeste 0 -- -- 53
2019-06-02 09:00:00 19.2 3 Oeste 7 Oeste 0 -- -- 59
2019-06-02 08:00:00 15 6 Norte 12 Norte 0 -- -- 73
2019-06-02 07:00:00 11.1 8 Norte 11 Norte 0 -- -- 82
2019-06-02 06:00:00 11.4 9 Norte 13 Norte 0 -- -- 80
2019-06-02 05:00:00 11.8 8 Norte 10 Norte 0 -- -- 79
2019-06-02 04:00:00 12.5 7 Noroeste 13 Norte 0 -- -- 76
2019-06-02 03:00:00 13.2 9 Norte 14 Norte 0 -- -- 71
2019-06-02 02:00:00 13.4 9 Norte 12 Norte 0 -- -- 74
2019-06-02 01:00:00 14.6 9 Norte 11 Norte 0 -- -- 71
2019-06-02 00:00:00 17.9 5 Este 17 Sudeste 0 -- -- 58
2019-06-01 23:00:00 19.7 9 Sudeste 18 Sudeste 0 -- -- 52
2019-06-01 22:00:00 21.2 6 Sudeste 16 Sur 0 -- -- 51
2019-06-01 21:00:00 24.3 11 Sur 21 Sur 0 -- -- 43
2019-06-01 20:00:00 25.7 10 Sur 22 Sur 0 -- -- 35
2019-06-01 19:00:00 26.6 12 Sur 22 Sur 0 -- -- 33
2019-06-01 18:00:00 27.3 11 Sudoeste 23 Sur 0 -- -- 33
2019-06-01 17:00:00 27.4 10 Sur 22 Sur 0 -- -- 33
2019-06-01 16:00:00 27.3 9 Oeste 22 Sur 0 -- -- 32
2019-06-01 15:00:00 26.7 9 Sur 27 Sudeste 0 -- -- 35
2019-06-01 14:00:00 27 9 Sudeste 26 Sudeste 0 -- -- 37
2019-06-01 13:00:00 26 13 Este 22 Este 0 -- -- 39
2019-06-01 12:00:00 24.4 6 Este 18 Sudeste 0 -- -- 40
2019-06-01 11:00:00 23.1 6 Este 16 Sudeste 0 -- -- 43
2019-06-01 10:00:00 21.3 10 Este 17 Este 0 -- -- 53
2019-06-01 09:00:00 19.2 8 Este 17 Este 0 -- -- 58
2019-06-01 08:00:00 16.1 3 Este 12 Este 0 -- -- 72
2019-06-01 07:00:00 11.8 8 Norte 12 Norte 0 -- -- 83
2019-06-01 06:00:00 12 6 Norte 13 Norte 0 -- -- 82
2019-06-01 05:00:00 11.3 9 Norte 12 Norte 0 -- -- 85
2019-06-01 04:00:00 11.7 9 Norte 14 Norte 0 -- -- 83
2019-06-01 03:00:00 12 9 Norte 12 Norte 0 -- -- 82
2019-06-01 02:00:00 12.5 8 Norte 11 Norte 0 -- -- 79
2019-06-01 01:00:00 13.3 6 Norte 9 Norte 0 -- -- 77
2019-06-01 00:00:00 15.6 5 Este 8 Este 0 -- -- 68
2019-05-31 23:00:00 18 6 Sudeste 11 Sudeste 0 -- -- 61
2019-05-31 22:00:00 19.9 6 Sudeste 18 Sur 0 -- -- 55
2019-05-31 21:00:00 23 5 Sur 17 Sudoeste 0 -- -- 38
2019-05-31 20:00:00 24.1 12 Sur 20 Sudoeste 0 -- -- 35
2019-05-31 19:00:00 25 11 Sur 25 Sur 0 -- -- 34
2019-05-31 18:00:00 25.2 12 Sur 26 Sudoeste 0 -- -- 33
2019-05-31 17:00:00 25.7 12 Sudoeste 25 Oeste 0 -- -- 35
2019-05-31 16:00:00 25.1 10 Sudeste 24 Sudeste 0 -- -- 36
2019-05-31 15:00:00 24.7 12 Sur 22 Este 0 -- -- 36
2019-05-31 14:00:00 24.2 8 Sudeste 24 Este 0 -- -- 39
2019-05-31 13:00:00 23.4 9 Sudeste 19 Este 0 -- -- 45
2019-05-31 12:00:00 21.9 9 Sur 18 Sudeste 0 -- -- 45
2019-05-31 11:00:00 20.6 9 Este 19 Sudeste 0 -- -- 51
2019-05-31 10:00:00 19.5 5 Sudeste 13 Este 0 -- -- 53
2019-05-31 09:00:00 17.1 9 Este 13 Sudeste 0 -- -- 63
2019-05-31 08:00:00 13.4 4 Este 6 Nordeste 0 -- -- 77
2019-05-31 07:00:00 9.4 4 Nordeste 9 Norte 0 -- -- 87
2019-05-31 06:00:00 9.2 4 Norte 10 Norte 0 -- -- 86
2019-05-31 05:00:00 9.8 8 Norte 12 Norte 0 -- -- 85
2019-05-31 04:00:00 10 9 Norte 11 Norte 0 -- -- 85
2019-05-31 03:00:00 11 3 Nordeste 9 Este 0 -- -- 82
2019-05-31 02:00:00 12.2 6 Este 9 Este 0 -- -- 77
2019-05-31 01:00:00 13.2 6 Este 9 Este 0 -- -- 72
2019-05-31 00:00:00 15.1 4 Este 14 Sudeste 0 -- -- 64
2019-05-30 23:00:00 14.3 4 Norte 9 Norte 0 -- -- 65
2019-05-30 22:00:00 16.3 3 Norte 8 Norte 0 -- -- 61
2019-05-30 21:00:00 22.3 4 Sudoeste 14 Sudoeste 0 -- -- 41
2019-05-30 20:00:00 23.9 7 Oeste 18 Sudoeste 0 -- -- 39
2019-05-30 19:00:00 24.3 12 Sudoeste 24 Oeste 0 -- -- 37
2019-05-30 18:00:00 24.6 10 Oeste 24 Oeste 0 -- -- 36
2019-05-30 17:00:00 24.2 12 Oeste 23 Oeste 0 -- -- 34
2019-05-30 16:00:00 23.3 10 Oeste 24 Oeste 0 -- -- 34
2019-05-30 15:00:00 22.7 9 Sudoeste 22 Oeste 0 -- -- 40
2019-05-30 14:00:00 21.7 10 Oeste 24 Oeste 0 -- -- 43
2019-05-30 13:00:00 20.4 11 Noroeste 19 Oeste 0 -- -- 39
2019-05-30 12:00:00 19.3 9 Noroeste 20 Noroeste 0 -- -- 45
2019-05-30 11:00:00 17.2 13 Noroeste 20 Oeste 0 -- -- 45
2019-05-30 10:00:00 16.1 10 Noroeste 15 Noroeste 0 -- -- 49
2019-05-30 09:00:00 14.5 5 Sudoeste 11 Noroeste 0 -- -- 53
2019-05-30 08:00:00 11.3 6 Noroeste 11 Noroeste 0 -- -- 60
2019-05-30 07:00:00 7 6 Norte 12 Noroeste 0 -- -- 75
2019-05-30 06:00:00 7.1 9 Norte 14 Norte 0 -- -- 73
2019-05-30 05:00:00 7.4 11 Norte 13 Norte 0 -- -- 74
2019-05-30 04:00:00 8 6 Norte 9 Norte 0 -- -- 70
2019-05-30 03:00:00 9.4 9 Norte 15 Nordeste 0 -- -- 66
2019-05-30 02:00:00 12.5 11 Este 24 Nordeste 0 -- -- 50
2019-05-30 01:00:00 12.9 19 Nordeste 26 Nordeste 0 -- -- 47
2019-05-30 00:00:00 12.7 14 Nordeste 20 Este 0 -- -- 48
2019-05-29 23:00:00 13.9 6 Sudeste 17 Sudeste 0 -- -- 45
2019-05-29 22:00:00 15.5 15 Este 38 Este 0 -- -- 40
2019-05-29 21:00:00 17.2 25 Este 37 Este 0 -- -- 37
2019-05-29 20:00:00 19.4 23 Este 35 Nordeste 0 -- -- 33
2019-05-29 19:00:00 21.6 22 Este 35 Este 0 -- -- 29
2019-05-29 18:00:00 22.9 12 Este 21 Este 0 -- -- 24
2019-05-29 17:00:00 22.3 7 Sudoeste 33 Noroeste 0 -- -- 26
2019-05-29 16:00:00 21.5 9 Oeste 26 Sudoeste 0 -- -- 26
2019-05-29 15:00:00 20.5 12 Sudoeste 27 Oeste 0 -- -- 28
2019-05-29 14:00:00 19.5 12 Oeste 29 Oeste 0 -- -- 32
2019-05-29 13:00:00 18.1 14 Oeste 28 Oeste 0 -- -- 33
2019-05-29 12:00:00 16 16 Oeste 24 Oeste 0 -- -- 37
2019-05-29 11:00:00 15.1 9 Oeste 21 Oeste 0 -- -- 42
2019-05-29 10:00:00 13.8 12 Oeste 18 Noroeste 0 -- -- 49
2019-05-29 09:00:00 11.1 9 Noroeste 16 Oeste 0 -- -- 56
2019-05-29 08:00:00 9.3 5 Noroeste 12 Norte 0 -- -- 62
2019-05-29 07:00:00 5.3 10 Norte 17 Norte 0 -- -- 73
2019-05-29 06:00:00 5.6 9 Norte 13 Norte 0 -- -- 73
2019-05-29 05:00:00 5.6 9 Norte 12 Noroeste 0 -- -- 72
2019-05-29 04:00:00 7.3 8 Noroeste 14 Norte 0 -- -- 63
2019-05-29 03:00:00 7.7 11 Noroeste 17 Noroeste 0 -- -- 58
2019-05-29 02:00:00 9.7 4 Norte 20 Norte 0 -- -- 54
2019-05-29 01:00:00 11.5 12 Este 28 Norte 0 -- -- 42
2019-05-29 00:00:00 12.3 12 Nordeste 31 Norte 0 -- -- 41
2019-05-28 23:00:00 13.1 11 Norte 32 Norte 0 -- -- 41
2019-05-28 22:00:00 15.2 19 Noroeste 37 Noroeste 0 -- -- 37
2019-05-28 21:00:00 17.9 20 Noroeste 39 Noroeste 0 -- -- 36
2019-05-28 20:00:00 19.3 19 Noroeste 40 Oeste 0 -- -- 36
2019-05-28 19:00:00 21 21 Noroeste 39 Oeste 0 -- -- 32
2019-05-28 18:00:00 20.6 16 Sudoeste 32 Sudoeste 0 -- -- 38
2019-05-28 17:00:00 21.9 13 Sudoeste 30 Oeste 0 -- -- 34
2019-05-28 16:00:00 20.8 9 Sudoeste 29 Sudoeste 0 -- -- 35
2019-05-28 15:00:00 20.2 12 Sudoeste 27 Noroeste 0 -- -- 38
2019-05-28 14:00:00 18.6 16 Oeste 27 Oeste 0 -- -- 44
2019-05-28 13:00:00 17.8 14 Oeste 25 Oeste 0 -- -- 52
2019-05-28 12:00:00 16.6 12 Noroeste 21 Noroeste 0 -- -- 56
2019-05-28 11:00:00 15.2 12 Oeste 21 Oeste 0 -- -- 53
2019-05-28 10:00:00 14.2 11 Oeste 18 Oeste 0 -- -- 60
2019-05-28 09:00:00 12 8 Oeste 13 Oeste 0 -- -- 68
2019-05-28 08:00:00 11.2 3 Noroeste 7 Oeste 0 -- -- 87
2019-05-28 07:00:00 9 8 Norte 9 Norte 0 -- -- 93
2019-05-28 06:00:00 8.8 5 Norte 9 Noroeste 0 -- -- 91
2019-05-28 05:00:00 9.3 5 Norte 11 Norte 0 -- -- 89
2019-05-28 04:00:00 9.2 8 Norte 10 Norte 0 -- -- 85
2019-05-28 03:00:00 10.6 3 Nordeste 14 Norte 0 -- -- 76
2019-05-28 02:00:00 12.7 9 Norte 13 Norte 0 -- -- 69
2019-05-28 01:00:00 13 4 Noroeste 16 Nordeste 0 -- -- 68
2019-05-28 00:00:00 13.5 11 Nordeste 15 Norte 0 -- -- 65
2019-05-27 23:00:00 14.5 7 Norte 13 Noroeste 0 -- -- 75
2019-05-27 22:00:00 15.5 8 Norte 12 Norte 0 -- -- 72
2019-05-27 21:00:00 18.3 0 Calma 10 Este 0 -- -- 59
2019-05-27 20:00:00 18.9 3 Sudeste 15 Sur 0 -- -- 56
2019-05-27 19:00:00 17.9 12 Noroeste 32 Oeste 0 -- -- 62
2019-05-27 18:00:00 20.5 9 Oeste 28 Oeste 0 -- -- 54
2019-05-27 17:00:00 22.6 10 Oeste 24 Oeste 0 -- -- 47
2019-05-27 16:00:00 20.7 10 Noroeste 22 Oeste 0 -- -- 52
2019-05-27 15:00:00 19.4 14 Oeste 24 Oeste 0 -- -- 52
2019-05-27 14:00:00 18.8 15 Noroeste 27 Oeste 0 -- -- 55
2019-05-27 13:00:00 17.9 10 Oeste 24 Oeste 0 -- -- 57
2019-05-27 12:00:00 18.2 10 Oeste 23 Oeste 0 -- -- 56
2019-05-27 11:00:00 16.4 9 Oeste 16 Sudoeste 0 -- -- 50
2019-05-27 10:00:00 15.7 3 Sudoeste 8 Sudoeste 0 -- -- 54
2019-05-27 09:00:00 13.5 4 Sudeste 8 Nordeste 0 -- -- 67
2019-05-27 08:00:00 10.8 3 Norte 12 Noroeste 0 -- -- 73
2019-05-27 07:00:00 6.8 9 Norte 12 Norte 0 -- -- 83
2019-05-27 06:00:00 7.1 8 Norte 11 Norte 0 -- -- 80
2019-05-27 05:00:00 8.1 8 Norte 12 Norte 0 -- -- 77
2019-05-27 04:00:00 9.6 6 Noroeste 17 Nordeste 0 -- -- 70
2019-05-27 03:00:00 13.1 13 Este 19 Este 0 -- -- 53
2019-05-27 02:00:00 13.6 13 Este 23 Este 0 -- -- 50
2019-05-27 01:00:00 13.6 11 Este 17 Este 0 -- -- 49
2019-05-27 00:00:00 13.7 7 Nordeste 11 Nordeste 0 -- -- 51
2019-05-26 23:00:00 14 4 Este 19 Este 0 -- -- 50
2019-05-26 22:00:00 15 9 Este 16 Sudeste 0 -- -- 49
2019-05-26 21:00:00 17.1 13 Este 18 Este 0 -- -- 45
2019-05-26 20:00:00 19.1 10 Este 28 Este 0 -- -- 43
2019-05-26 19:00:00 19.6 5 Noroeste 18 Oeste 0 -- -- 49
2019-05-26 18:00:00 20.6 12 Oeste 26 Noroeste 0 -- -- 46
2019-05-26 17:00:00 20.6 8 Oeste 21 Oeste 0 -- -- 43
2019-05-26 16:00:00 20.9 10 Oeste 26 Oeste 0 -- -- 44
2019-05-26 15:00:00 20.4 13 Oeste 28 Sudoeste 0 -- -- 43
2019-05-26 14:00:00 19.5 13 Oeste 23 Oeste 0 -- -- 48
2019-05-26 13:00:00 18.5 14 Oeste 23 Oeste 0 -- -- 51
2019-05-26 12:00:00 18 12 Oeste 22 Oeste 0 -- -- 45
2019-05-26 11:00:00 16.5 12 Oeste 19 Oeste 0 -- -- 49
2019-05-26 10:00:00 15.3 10 Oeste 14 Oeste 0 -- -- 57
2019-05-26 09:00:00 13.7 6 Oeste 8 Oeste 0 -- -- 62
2019-05-26 08:00:00 10.5 5 Noroeste 14 Norte 0 -- -- 74
2019-05-26 07:00:00 7 10 Norte 14 Norte 0 -- -- 84
2019-05-26 06:00:00 6.8 12 Norte 15 Norte 0 -- -- 84
2019-05-26 05:00:00 7.3 10 Norte 16 Norte 0 -- -- 84
2019-05-26 04:00:00 7.4 10 Norte 13 Norte 0 -- -- 83
2019-05-26 03:00:00 8.7 6 Norte 14 Norte 0 -- -- 76
2019-05-26 02:00:00 10.9 5 Este 12 Este 0 -- -- 69
2019-05-26 01:00:00 12.6 14 Este 21 Este 0 -- -- 61
2019-05-26 00:00:00 12.7 7 Nordeste 20 Este 0 -- -- 60
2019-05-25 23:00:00 13 8 Este 15 Sudeste 0 -- -- 76
2019-05-25 22:00:00 14.8 5 Norte 12 Norte 0.4 -- -- 75
2019-05-25 21:00:00 16.5 8 Este 12 Este 0 -- -- 75
2019-05-25 20:00:00 17.5 5 Sur 13 Este 0 -- -- 66
2019-05-25 19:00:00 18.5 4 Sudeste 10 Este 0 -- -- 72
2019-05-25 18:00:00 17.9 9 Sudeste 14 Este 0 -- -- 75
2019-05-25 17:00:00 17.2 9 Sudeste 35 Sudeste 1.8 -- -- 79
2019-05-25 16:00:00 18.4 17 Sudeste 30 Sudeste 0 -- -- 72
2019-05-25 15:00:00 19 13 Sudeste 25 Oeste 0 -- -- 60
2019-05-25 14:00:00 19.3 12 Sudoeste 22 Sudoeste 0 -- -- 56
2019-05-25 13:00:00 19.2 13 Oeste 24 Oeste 0 -- -- 50
2019-05-25 12:00:00 17.9 10 Oeste 21 Oeste 0 -- -- 56
2019-05-25 11:00:00 17.1 11 Oeste 20 Sudoeste 0 -- -- 57
2019-05-25 10:00:00 15.2 6 Oeste 12 Oeste 0 -- -- 77
2019-05-25 09:00:00 12.4 6 Oeste 13 Oeste 0 -- -- 95
2019-05-25 08:00:00 11 9 Noroeste 13 Oeste 0 -- -- 97
2019-05-25 07:00:00 10.7 5 Noroeste 9 Noroeste 0 -- -- 96
2019-05-25 06:00:00 10.7 8 Noroeste 11 Noroeste 0 -- -- 97
2019-05-25 05:00:00 11 4 Oeste 8 Noroeste 0 -- -- 97
2019-05-25 04:00:00 11 6 Noroeste 9 Noroeste 0 -- -- 96
2019-05-25 03:00:00 11.5 3 Sudoeste 6 Noroeste 0 -- -- 95
2019-05-25 02:00:00 11.7 3 Noroeste 10 Noroeste 0 -- -- 95
2019-05-25 01:00:00 12.1 6 Noroeste 12 Oeste 0 -- -- 95
2019-05-25 00:00:00 12.3 5 Noroeste 8 Noroeste 0 -- -- 93